createdAt,value
2022-08-09T00:02:07.166Z,99.90
2022-08-09T00:05:03.725Z,99.90
2022-08-09T00:07:59.966Z,99.90
2022-08-09T00:10:47.748Z,99.90
2022-08-09T00:13:33.569Z,99.90
2022-08-09T00:16:26.305Z,99.90
2022-08-09T00:19:23.256Z,99.90
2022-08-09T00:22:09.531Z,99.90
2022-08-09T00:24:57.697Z,99.90
2022-08-09T00:27:43.742Z,99.90
2022-08-09T00:30:35.337Z,99.90
2022-08-09T00:33:49.131Z,99.90
2022-08-09T00:36:30.719Z,99.90
2022-08-09T00:40:12.323Z,99.90
2022-08-09T00:44:24.696Z,99.90
2022-08-09T00:45:35.358Z,99.90
2022-08-09T00:48:21.470Z,99.90
2022-08-09T00:51:11.864Z,99.90
2022-08-09T00:53:58.666Z,99.90
2022-08-09T00:56:44.872Z,99.90
2022-08-09T00:59:40.961Z,99.90
2022-08-09T01:02:31.137Z,99.90
2022-08-09T01:05:51.018Z,99.90
2022-08-09T01:08:48.910Z,99.90
2022-08-09T01:11:53.236Z,99.90
2022-08-09T01:14:52.539Z,99.90
2022-08-09T01:17:44.608Z,99.90
2022-08-09T01:21:06.260Z,99.90
2022-08-09T01:24:04.972Z,99.90
2022-08-09T01:27:12.614Z,99.90
2022-08-09T01:30:02.395Z,99.90
2022-08-09T01:32:51.774Z,99.90
2022-08-09T01:35:46.880Z,99.90
2022-08-09T01:38:44.303Z,99.90
2022-08-09T01:41:35.714Z,99.90
2022-08-09T01:44:23.842Z,99.90
2022-08-09T01:47:12.124Z,99.90
2022-08-09T01:49:59.044Z,99.90
2022-08-09T01:52:46.180Z,99.90
2022-08-09T01:55:37.635Z,99.90
2022-08-09T01:58:28.067Z,99.90
2022-08-09T02:01:18.175Z,99.90
2022-08-09T02:04:06.525Z,99.90
2022-08-09T02:07:18.323Z,99.90
2022-08-09T02:10:29.906Z,99.90
2022-08-09T02:13:19.155Z,99.90
2022-08-09T02:16:11.340Z,99.90
2022-08-09T02:18:59.725Z,99.90
2022-08-09T02:21:55.672Z,99.90
2022-08-09T02:24:46.395Z,99.90
2022-08-09T02:27:58.211Z,99.90
2022-08-09T02:31:05.991Z,99.90
2022-08-09T02:34:07.529Z,99.90
2022-08-09T02:37:01.444Z,99.90
2022-08-09T02:40:01.685Z,99.90
2022-08-09T02:42:51.865Z,99.90
2022-08-09T02:45:44.043Z,99.90
2022-08-09T02:48:33.498Z,99.90
2022-08-09T02:51:22.611Z,99.90
2022-08-09T02:54:15.432Z,99.90
2022-08-09T02:57:14.190Z,99.90
2022-08-09T03:00:21.179Z,99.90
2022-08-09T03:03:12.917Z,99.90
2022-08-09T03:06:14.540Z,99.90
2022-08-09T03:09:02.143Z,99.90
2022-08-09T03:12:09.748Z,99.90
2022-08-09T03:14:57.603Z,99.90
2022-08-09T03:17:45.044Z,99.90
2022-08-09T03:20:42.946Z,99.90
2022-08-09T03:23:30.762Z,99.90
2022-08-09T03:26:18.602Z,99.90
2022-08-09T03:29:09.806Z,99.90
2022-08-09T03:32:00.940Z,99.90
2022-08-09T03:34:48.214Z,99.90
2022-08-09T03:37:56.442Z,99.90
2022-08-09T03:40:44.788Z,99.90
2022-08-09T03:43:33.164Z,99.90
2022-08-09T03:46:20.744Z,99.90
2022-08-09T03:49:17.329Z,99.90
2022-08-09T03:52:07.392Z,99.90
2022-08-09T03:54:54.901Z,99.90
2022-08-09T03:57:53.638Z,99.90
2022-08-09T04:00:50.081Z,99.90
2022-08-09T04:04:00.501Z,99.90
2022-08-09T04:06:49.043Z,99.90
2022-08-09T04:09:47.957Z,99.90
2022-08-09T04:12:49.939Z,99.90
2022-08-09T04:16:18.697Z,99.90
2022-08-09T04:18:45.940Z,99.90
2022-08-09T04:21:38.425Z,99.90
2022-08-09T04:24:26.952Z,99.90
2022-08-09T04:27:13.266Z,99.90
2022-08-09T04:30:01.192Z,99.90
2022-08-09T04:32:48.033Z,99.90
2022-08-09T04:35:34.254Z,99.90
2022-08-09T04:38:20.542Z,99.90
2022-08-09T04:41:09.764Z,99.90
2022-08-09T04:44:06.865Z,99.90
2022-08-09T04:46:58.862Z,99.90
2022-08-09T04:49:54.816Z,99.90
2022-08-09T04:52:42.167Z,99.90
2022-08-09T04:55:32.464Z,99.90
2022-08-09T04:58:27.043Z,99.90
2022-08-09T05:01:16.384Z,99.90
2022-08-09T05:04:04.877Z,99.90
2022-08-09T05:06:51.431Z,99.90
2022-08-09T05:09:49.396Z,99.90
2022-08-09T05:12:36.418Z,99.90
2022-08-09T05:15:39.026Z,99.90
2022-08-09T05:18:50.676Z,99.90
2022-08-09T05:21:46.990Z,99.90
2022-08-09T05:24:38.696Z,99.90
2022-08-09T05:27:25.028Z,99.90
2022-08-09T05:30:12.178Z,99.90
2022-08-09T05:33:01.979Z,99.90
2022-08-09T05:35:50.787Z,99.90
2022-08-09T05:38:40.285Z,99.90
2022-08-09T05:41:32.136Z,99.90
2022-08-09T05:44:22.269Z,99.90
2022-08-09T05:47:15.807Z,99.90
2022-08-09T05:50:25.853Z,99.90
2022-08-09T05:53:11.766Z,99.90
2022-08-09T05:56:08.616Z,99.90
2022-08-09T05:58:59.389Z,99.90
2022-08-09T06:01:46.464Z,99.90
2022-08-09T06:04:36.517Z,99.90
2022-08-09T06:07:22.735Z,99.90
2022-08-09T06:10:15.816Z,99.90
2022-08-09T06:13:12.033Z,99.90
2022-08-09T06:16:05.336Z,99.90
2022-08-09T06:18:51.528Z,99.90
2022-08-09T06:21:39.750Z,99.90
2022-08-09T06:24:37.694Z,99.90
2022-08-09T06:27:26.565Z,99.90
2022-08-09T06:30:29.708Z,99.90
2022-08-09T06:33:39.667Z,99.90
2022-08-09T06:36:27.205Z,99.90
2022-08-09T06:39:14.746Z,99.90
2022-08-09T06:42:09.183Z,99.90
2022-08-09T06:44:58.921Z,99.90
2022-08-09T06:47:45.305Z,99.90
2022-08-09T06:50:31.994Z,99.90
2022-08-09T06:53:18.171Z,99.90
2022-08-09T06:56:07.914Z,99.90
2022-08-09T07:00:56.551Z,99.90
2022-08-09T07:02:05.127Z,99.90
2022-08-09T07:04:51.153Z,99.90
2022-08-09T07:08:00.742Z,99.90
2022-08-09T07:10:43.203Z,99.90
2022-08-09T07:13:45.534Z,99.90
2022-08-09T07:16:44.758Z,99.90
2022-08-09T07:19:35.609Z,99.90
2022-08-09T07:22:34.818Z,99.90
2022-08-09T07:25:22.500Z,99.90
2022-08-09T07:28:12.138Z,99.90
2022-08-09T07:31:06.111Z,99.90
2022-08-09T07:33:55.833Z,99.90
2022-08-09T07:36:42.622Z,99.90
2022-08-09T07:39:41.187Z,99.90
2022-08-09T07:42:32.744Z,99.90
2022-08-09T07:45:38.372Z,99.90
2022-08-09T07:48:30.353Z,99.90
2022-08-09T07:52:05.285Z,99.90
2022-08-09T07:54:27.914Z,99.90
2022-08-09T07:57:16.333Z,99.90
2022-08-09T08:00:03.995Z,99.90
2022-08-09T08:03:00.350Z,99.90
2022-08-09T08:05:53.814Z,99.90
2022-08-09T08:09:02.325Z,99.90
2022-08-09T08:12:23.910Z,99.90
2022-08-09T08:14:57.256Z,99.90
2022-08-09T08:17:54.170Z,99.90
2022-08-09T08:20:42.908Z,99.90
2022-08-09T08:23:29.084Z,99.90
2022-08-09T08:26:26.441Z,99.90
2022-08-09T08:29:27.645Z,99.90
2022-08-09T08:32:14.510Z,99.90
2022-08-09T08:35:10.980Z,99.90
2022-08-09T08:38:11.461Z,99.90
2022-08-09T08:40:58.915Z,99.90
2022-08-09T08:43:44.992Z,99.90
2022-08-09T08:46:41.401Z,99.90
2022-08-09T08:49:48.587Z,99.90
2022-08-09T08:52:58.547Z,99.90
2022-08-09T08:55:43.824Z,99.90
2022-08-09T08:58:32.202Z,99.90
2022-08-09T09:01:24.726Z,99.90
2022-08-09T09:04:16.123Z,99.90
2022-08-09T09:07:15.620Z,99.90
2022-08-09T09:10:12.665Z,99.90
2022-08-09T09:13:01.020Z,99.90
2022-08-09T09:15:56.240Z,99.90
2022-08-09T09:18:48.809Z,99.90
2022-08-09T09:22:07.327Z,99.90
2022-08-09T09:26:00.420Z,99.90
2022-08-09T09:28:10.788Z,99.90
2022-08-09T09:30:58.129Z,99.90
2022-08-09T09:33:46.716Z,99.90
2022-08-09T09:36:52.912Z,99.90
2022-08-09T09:39:55.631Z,99.90
2022-08-09T09:42:56.375Z,99.90
2022-08-09T09:46:39.469Z,99.90
2022-08-09T09:49:10.343Z,99.90
2022-08-09T09:52:16.538Z,99.90
2022-08-09T09:55:28.338Z,99.90
2022-08-09T09:58:20.112Z,99.90
2022-08-09T10:01:31.152Z,99.90
2022-08-09T10:04:30.369Z,99.90
2022-08-09T10:07:26.460Z,99.90
2022-08-09T10:10:14.107Z,99.90
2022-08-09T10:13:07.406Z,99.80
2022-08-09T10:16:55.465Z,99.50
2022-08-09T10:19:10.174Z,99.20
2022-08-09T10:21:56.539Z,98.80
2022-08-09T10:24:42.955Z,98.30
2022-08-09T10:27:38.529Z,97.90
2022-08-09T10:32:04.265Z,97.50
2022-08-09T10:34:08.509Z,96.60
2022-08-09T10:36:43.513Z,96.10
2022-08-09T10:39:40.588Z,95.30
2022-08-09T10:42:35.724Z,95.30
2022-08-09T10:45:22.780Z,94.80
2022-08-09T10:48:52.329Z,94.40
2022-08-09T10:52:05.325Z,93.90
2022-08-09T10:54:54.916Z,93.80
2022-08-09T10:57:41.836Z,93.60
2022-08-09T11:00:35.537Z,93.20
2022-08-09T11:03:46.770Z,92.80
2022-08-09T11:06:33.288Z,92.50
2022-08-09T11:09:41.432Z,92.30
2022-08-09T11:12:36.770Z,91.90
2022-08-09T11:15:33.818Z,91.90
2022-08-09T11:18:45.118Z,91.50
2022-08-09T11:21:57.192Z,91.10
2022-08-09T11:25:17.191Z,91.10
2022-08-09T11:28:55.642Z,91.10
2022-08-09T11:31:49.213Z,91.10
2022-08-09T11:34:44.078Z,91.10
2022-08-09T11:37:40.935Z,90.90
2022-08-09T11:40:31.316Z,90.60
2022-08-09T11:43:48.990Z,90.10
2022-08-09T11:47:14.599Z,89.00
2022-08-09T11:50:53.641Z,88.20
2022-08-09T11:53:59.154Z,88.10
2022-08-09T11:56:20.840Z,87.50
2022-08-09T11:59:30.564Z,86.80
2022-08-09T12:02:36.903Z,86.30
2022-08-09T12:05:37.638Z,85.60
2022-08-09T12:08:26.112Z,85.00
2022-08-09T12:11:15.663Z,84.40
2022-08-09T12:14:28.540Z,83.90
2022-08-09T12:17:27.922Z,83.30
2022-08-09T12:20:24.635Z,83.10
2022-08-09T12:23:11.103Z,82.90
2022-08-09T12:26:00.572Z,82.70
2022-08-09T12:28:59.432Z,82.30
2022-08-09T12:32:08.164Z,82.10
2022-08-09T12:35:04.572Z,81.70
2022-08-09T12:37:52.327Z,81.80
2022-08-09T12:40:52.054Z,81.40
2022-08-09T12:44:06.590Z,81.00
2022-08-09T12:46:50.101Z,80.60
2022-08-09T12:49:38.177Z,80.50
2022-08-09T12:52:40.280Z,80.50
2022-08-09T12:56:11.562Z,80.40
2022-08-09T12:58:42.856Z,80.00
2022-08-09T13:01:30.266Z,79.90
2022-08-09T13:04:36.913Z,79.90
2022-08-09T13:07:28.699Z,80.00
2022-08-09T13:10:34.890Z,79.70
2022-08-09T13:13:38.094Z,79.40
2022-08-09T13:16:46.029Z,79.00
2022-08-09T13:20:08.356Z,79.00
2022-08-09T13:23:05.539Z,78.60
2022-08-09T13:25:56.263Z,78.40
2022-08-09T13:29:01.376Z,78.30
2022-08-09T13:32:16.108Z,77.80
2022-08-09T13:35:03.806Z,77.60
2022-08-09T13:37:52.947Z,77.40
2022-08-09T13:41:50.897Z,76.80
2022-08-09T13:43:45.463Z,76.50
2022-08-09T13:47:17.959Z,76.20
2022-08-09T13:49:57.606Z,76.10
2022-08-09T13:52:47.876Z,75.70
2022-08-09T13:55:34.539Z,75.20
2022-08-09T13:58:23.365Z,74.80
2022-08-09T14:01:13.482Z,75.20
2022-08-09T14:04:17.104Z,75.00
2022-08-09T14:07:09.996Z,74.70
2022-08-09T14:09:56.935Z,74.30
2022-08-09T14:12:44.324Z,74.10
2022-08-09T14:16:09.243Z,73.70
2022-08-09T14:18:36.566Z,73.50
2022-08-09T14:21:24.170Z,73.30
2022-08-09T14:24:22.377Z,72.90
2022-08-09T14:27:20.358Z,72.40
2022-08-09T14:30:37.060Z,72.20
2022-08-09T14:33:13.909Z,72.00
2022-08-09T14:36:19.982Z,71.80
2022-08-09T14:39:08.960Z,71.40
2022-08-09T14:41:55.173Z,71.00
2022-08-09T14:44:48.827Z,70.50
2022-08-09T14:47:56.864Z,70.20
2022-08-09T14:50:45.594Z,69.90
2022-08-09T14:53:32.023Z,69.50
2022-08-09T14:56:26.822Z,69.20
2022-08-09T14:59:16.582Z,69.00
2022-08-09T15:02:02.706Z,68.70
2022-08-09T15:04:51.678Z,68.40
2022-08-09T15:07:37.975Z,67.90
2022-08-09T15:10:31.754Z,67.50
2022-08-09T15:13:18.262Z,67.20
2022-08-09T15:16:04.998Z,66.70
2022-08-09T15:18:54.477Z,66.30
2022-08-09T15:21:57.883Z,65.40
2022-08-09T15:24:48.595Z,64.70
2022-08-09T15:27:47.895Z,64.00
2022-08-09T15:30:56.676Z,63.00
2022-08-09T15:34:17.785Z,62.40
2022-08-09T15:36:53.252Z,61.70
2022-08-09T15:39:53.721Z,60.80
2022-08-09T15:42:43.880Z,59.90
2022-08-09T15:45:30.246Z,59.20
2022-08-09T15:48:28.299Z,59.10
2022-08-09T15:51:44.508Z,57.80
2022-08-09T15:54:28.700Z,57.00
2022-08-09T15:57:34.258Z,56.40
2022-08-09T16:00:26.171Z,55.60
2022-08-09T16:03:26.760Z,55.00
2022-08-09T16:06:27.454Z,54.40
2022-08-09T16:09:32.465Z,53.70
2022-08-09T16:12:31.273Z,53.70
2022-08-09T16:16:11.469Z,53.30
2022-08-09T16:18:23.544Z,52.60
2022-08-09T16:21:09.496Z,52.20
2022-08-09T16:23:58.657Z,52.00
2022-08-09T16:26:48.896Z,51.80
2022-08-09T16:29:37.605Z,51.50
2022-08-09T16:32:55.104Z,51.30
2022-08-09T16:35:55.906Z,51.10
2022-08-09T16:38:45.977Z,51.10
2022-08-09T16:41:39.429Z,51.00
2022-08-09T16:44:44.269Z,50.60
2022-08-09T16:48:42.194Z,50.60
2022-08-09T16:50:38.260Z,50.60
2022-08-09T16:53:25.037Z,50.30
2022-08-09T16:56:18.779Z,50.10
2022-08-09T16:59:11.606Z,49.80
2022-08-09T17:01:58.055Z,49.70
2022-08-09T17:04:46.533Z,49.30
2022-08-09T17:08:43.946Z,49.00
2022-08-09T17:10:43.321Z,48.70
2022-08-09T17:13:34.283Z,48.40
2022-08-09T17:16:20.790Z,48.10
2022-08-09T17:19:06.961Z,48.00
2022-08-09T17:21:57.035Z,48.10
2022-08-09T17:24:47.856Z,48.10
2022-08-09T17:27:49.330Z,48.00
2022-08-09T17:30:40.208Z,47.80
2022-08-09T17:33:37.832Z,47.90
2022-08-09T17:36:24.329Z,47.90
2022-08-09T17:39:14.499Z,48.00
2022-08-09T17:42:01.453Z,48.00
2022-08-09T17:44:49.358Z,48.00
2022-08-09T17:47:49.185Z,48.00
2022-08-09T17:50:37.773Z,48.00
2022-08-09T17:53:24.946Z,48.20
2022-08-09T17:56:11.196Z,48.50
2022-08-09T17:59:03.034Z,49.00
2022-08-09T18:02:07.581Z,49.70
2022-08-09T18:04:57.185Z,50.90
2022-08-09T18:07:48.562Z,52.40
2022-08-09T18:10:35.147Z,53.80
2022-08-09T18:13:43.388Z,55.30
2022-08-09T18:16:30.677Z,56.70
2022-08-09T18:20:54.655Z,58.00
2022-08-09T18:22:25.557Z,59.30
2022-08-09T18:25:12.455Z,60.60
2022-08-09T18:28:04.569Z,61.90
2022-08-09T18:30:53.615Z,65.10
2022-08-09T18:33:40.322Z,67.90
2022-08-09T18:36:32.549Z,69.00
2022-08-09T18:39:24.219Z,69.90
2022-08-09T18:42:10.531Z,70.50
2022-08-09T18:45:01.371Z,71.10
2022-08-09T18:47:54.921Z,71.40
2022-08-09T18:50:45.399Z,72.00
2022-08-09T18:53:55.997Z,72.70
2022-08-09T18:56:40.353Z,73.10
2022-08-09T18:59:27.516Z,73.20
2022-08-09T19:02:24.020Z,73.90
2022-08-09T19:05:48.754Z,75.10
2022-08-09T19:08:28.103Z,76.00
2022-08-09T19:11:14.742Z,75.90
2022-08-09T19:14:03.216Z,76.50
2022-08-09T19:16:52.716Z,76.70
2022-08-09T19:19:41.665Z,76.80
2022-08-09T19:22:28.093Z,77.00
2022-08-09T19:25:42.022Z,77.40
2022-08-09T19:28:20.433Z,78.30
2022-08-09T19:31:07.625Z,78.40
2022-08-09T19:33:54.869Z,78.60
2022-08-09T19:36:43.823Z,78.60
2022-08-09T19:40:03.081Z,78.70
2022-08-09T19:42:38.960Z,79.10
2022-08-09T19:45:25.972Z,79.20
2022-08-09T19:49:00.944Z,79.40
2022-08-09T19:51:32.876Z,79.80
2022-08-09T19:54:27.759Z,80.30
2022-08-09T19:57:13.862Z,80.90
2022-08-09T20:00:07.558Z,81.90
2022-08-09T20:04:10.032Z,82.30
2022-08-09T20:06:04.833Z,83.10
2022-08-09T20:09:20.617Z,83.70
2022-08-09T20:12:22.305Z,84.50
2022-08-09T20:16:36.869Z,85.10
2022-08-09T20:18:27.661Z,85.40
2022-08-09T20:21:14.775Z,85.90
2022-08-09T20:24:03.916Z,86.50
2022-08-09T20:26:50.357Z,87.20
2022-08-09T20:29:38.833Z,87.60
2022-08-09T20:32:33.850Z,88.10
2022-08-09T20:35:21.738Z,88.60
2022-08-09T20:38:22.233Z,89.30
2022-08-09T20:41:14.647Z,89.90
2022-08-09T20:44:01.221Z,90.10
2022-08-09T20:46:47.205Z,90.50
2022-08-09T20:49:37.371Z,90.70
2022-08-09T20:52:23.904Z,91.00
2022-08-09T20:55:12.391Z,91.40
2022-08-09T20:58:07.843Z,91.70
2022-08-09T21:01:13.643Z,91.90
2022-08-09T21:04:08.279Z,92.20
2022-08-09T21:07:12.125Z,92.30
2022-08-09T21:10:00.871Z,92.60
2022-08-09T21:15:54.378Z,93.20
2022-08-09T21:20:02.447Z,93.40
2022-08-09T21:21:56.310Z,93.70
2022-08-09T21:25:02.270Z,94.00
2022-08-09T21:27:52.860Z,94.30
2022-08-09T21:30:41.434Z,94.50
2022-08-09T21:33:27.709Z,94.70
2022-08-09T21:36:28.194Z,95.00
2022-08-09T21:39:21.779Z,95.20
2022-08-09T21:42:13.952Z,95.60
2022-08-09T21:45:00.951Z,95.90
2022-08-09T21:47:50.971Z,96.30
2022-08-09T21:50:38.869Z,96.50
2022-08-09T21:53:40.779Z,96.90
2022-08-09T21:56:34.047Z,97.20
2022-08-09T21:59:42.734Z,97.50
2022-08-09T22:02:36.405Z,97.70
2022-08-09T22:05:23.882Z,98.00
2022-08-09T22:08:27.239Z,98.30
2022-08-09T22:12:05.943Z,98.60
2022-08-09T22:14:19.455Z,98.90
2022-08-09T22:17:05.794Z,99.20
2022-08-09T22:19:58.771Z,99.40
2022-08-09T22:22:49.243Z,99.60
2022-08-09T22:26:06.784Z,99.90
2022-08-09T22:28:47.183Z,99.90
2022-08-09T22:31:44.335Z,99.90
2022-08-09T22:34:44.160Z,99.90
2022-08-09T22:37:45.273Z,99.90
2022-08-09T22:40:32.385Z,99.90
2022-08-09T22:44:00.566Z,99.90
2022-08-09T22:48:16.722Z,99.90
2022-08-09T22:49:36.735Z,99.90
2022-08-09T22:52:26.789Z,99.90
2022-08-09T22:55:21.902Z,99.90
2022-08-09T22:58:08.915Z,99.90
2022-08-09T23:00:54.807Z,99.90
2022-08-09T23:04:05.972Z,99.90
2022-08-09T23:07:11.349Z,99.90
2022-08-09T23:10:00.192Z,99.90
2022-08-09T23:12:47.145Z,99.90
2022-08-09T23:15:33.511Z,99.90
2022-08-09T23:18:19.635Z,99.90
2022-08-09T23:21:07.284Z,99.90
2022-08-09T23:24:05.153Z,99.90
2022-08-09T23:26:52.923Z,99.90
2022-08-09T23:29:38.933Z,99.90
2022-08-09T23:32:24.753Z,99.90
2022-08-09T23:35:10.676Z,99.90
2022-08-09T23:37:56.453Z,99.90
2022-08-09T23:40:42.693Z,99.90
2022-08-09T23:43:28.647Z,99.90
2022-08-09T23:46:14.611Z,99.90
2022-08-09T23:49:00.866Z,99.90
2022-08-09T23:51:47.226Z,99.90
2022-08-09T23:54:33.149Z,99.90
2022-08-09T23:57:21.078Z,99.90
